• Join FlightAware (Why Join?)
  • Login
  • US Flag 
11:30PM EDT


 

Airport Tracker/Info


-or-


 

Live Flight TrackerFlight Track Log ✈ SWA706 ✈ 18-May-2013 ✈ KALB - KBWI

Flight Track Log - Related Links

Times and Time Zones

All times are in EDT time to prevent confusion due to time zone crossing. See the SWA706 flight status page for this flight to view local times or setup timezone preferences in your user account.

Time Position Orientation Groundspeed Altitude Reporting Facility
EDT Latitude Longitude Course Direction KTS MPH feet Rate Location/Type
06:41AM 42.7694 -73.8089 321° Northwest 142 163 1,300  Level Boston Center
06:43AM 42.8147 -73.8581 321° Northwest 220 253 3,700 2,400 Climbing Boston Center
06:44AM 42.8553 -73.9297 308° West 238 274 6,800 3,180 Climbing Boston Center
06:45AM 42.8817 -73.9986 298° West 232 267 10,600 3,540 Climbing Boston Center
06:46AM 42.8719 -74.1003 263° West 233 268 13,900 3,240 Climbing Boston Center
06:47AM 42.8086 -74.1439 207° Southwest 253 291 17,100 2,160 Climbing Boston Center
06:48AM 42.7217 -74.1131 165° South 295 339 18,300 1,920 Climbing Boston Center
06:49AM 42.5975 -74.0506 160° South 353 406 21,000 2,520 Climbing Boston Center
06:50AM 42.4981 -73.9972 158° South 385 443 23,400 2,520 Climbing Boston Center
06:51AM 42.3822 -73.9353 158° South 429 494 26,100 2,280 Climbing Boston Center
06:52AM 42.2539 -73.8650 158° South 457 526 28,000 900 Climbing Boston Center
06:53AM 42.1400 -73.8036 158° South 452 520 28,000  Level Boston Center
06:54AM 42.0261 -73.7425 158° South 447 514 28,000  Level Boston Center
06:55AM 41.9156 -73.7569 186° South 401 461 28,000  Level Boston Center
06:57AM 41.7314 -73.8592 203° Southwest 375 432 28,000  Level New York Center
06:58AM 41.6297 -73.9211 204° Southwest 387 445 28,000  Level New York Center
06:59AM 41.5325 -73.9775 203° Southwest 387 445 28,000  Level New York Center
07:00AM 41.4331 -74.0364 204° Southwest 392 451 28,000  Level New York Center
07:01AM 41.3294 -74.0947 203° Southwest 399 459 28,000  Level New York Center
07:02AM 41.2128 -74.1608 203° Southwest 404 465 28,000  Level New York Center
07:03AM 41.1219 -74.2086 202° Southwest 404 465 28,000  Level New York Center
07:04AM 41.0281 -74.2861 212° Southwest 404 465 28,000  Level New York Center
07:05AM 40.9503 -74.3811 223° Southwest 385 443 28,000  Level New York Center
07:06AM 40.8722 -74.4783 223° Southwest 385 443 28,000  Level New York Center
07:07AM 40.7894 -74.5892 225° Southwest 390 449 28,000  Level New York Center
07:08AM 40.7114 -74.6861 223° Southwest 390 449 28,000  Level New York Center
07:09AM 40.6350 -74.7856 225° Southwest 390 449 28,000 -600 Level New York Center
07:10AM 40.5567 -74.8792 222° Southwest 390 449 26,800 -1,620 Descending New York Center
07:11AM 40.4847 -74.9706 224° Southwest 385 443 24,800 -1,980 Descending New York Center
07:12AM 40.4147 -75.0617 225° Southwest 367 422 22,900 -1,920 Descending New York Center
07:13AM 40.3428 -75.1497 223° Southwest 367 422 21,000 -1,860 Descending New York Center
07:14AM 40.2750 -75.2381 225° Southwest 356 410 19,200 -1,500 Descending New York Center
07:15AM 40.2050 -75.3206 222° Southwest 340 391 18,000 -660 Descending New York Center
07:16AM 40.1439 -75.3950 223° Southwest 340 391 18,000  Level New York Center
07:17AM 40.0694 -75.4825 222° Southwest 333 383 18,000  Level New York Center
07:18AM 40.0122 -75.5544 224° Southwest 333 383 18,000  Level New York Center
07:19AM 39.9378 -75.6469 224° Southwest 328 377 18,000  Level New York Center
07:20AM 39.8864 -75.7300 231° Southwest 328 377 18,000 -300 Level New York Center
07:21AM 39.8294 -75.8394 236° Southwest 336 387 17,400 -1,380 Descending New York Center
07:22AM 39.7772 -75.9383 236° Southwest 336 387 15,300 -1,560 Descending New York Center
07:24AM 39.6833 -76.1018 270° West  Level FlightAware Approximate
07:25AM 39.6167 -76.2667 270° West 297 342 10,400  Level Potomac TRACON
07:26AM 39.5667 -76.3500 232° Southwest 288 331 9,400 -1,080 Descending Potomac TRACON
07:27AM 39.5167 -76.4333 232° Southwest 274 315 8,300 -1,080 Descending Potomac TRACON
07:28AM 39.5000 -76.5167 255° West 261 300 7,400 -1,020 Descending Potomac TRACON
07:29AM 39.4833 -76.6167 258° West 249 287 6,300 -900 Descending Potomac TRACON
07:30AM 39.4667 -76.6667 247° West 225 259 5,700 -840 Descending Potomac TRACON
07:31AM 39.4333 -76.7500 243° Southwest 213 245 4,700 -600 Descending Potomac TRACON
07:33AM 39.3667 -76.8333 224° Southwest 154 177 4,000 -300 Descending Potomac TRACON
07:34AM 39.3333 -76.8167 159° South 151 174 3,800 -660 Descending Potomac TRACON
07:36AM 39.2667 -76.7500 142° Southeast 150 173 2,200 -900 Descending Potomac TRACON
07:37AM 39.2333 -76.7333 159° South 147 169 1,300 -780 Descending Potomac TRACON
07:38AM 39.2000 -76.7000 142° Southeast 132 152 700 -600 Descending Potomac TRACON
07:40AM 39.1754 -76.6683 142° Southeast  Level Estimated
07:47AM 39.1754 -76.6683 142° Southeast  Level Estimated
07:48AM 39.1754 -76.6683 142° Southeast  Level Estimated
07:49AM 39.1754 -76.6683 142° Southeast  Level Estimated
07:50AM 39.1754 -76.6683 142° Southeast  Level Estimated
07:51AM 39.1754 -76.6683 142° Southeast  Level Estimated
07:52AM 39.1754 -76.6683 142° Southeast  Level Estimated